13NC weather

Oak Grove Marine Corps Outlying Field
Pollocksville, North Carolina, United States

Public forecast

Using degrees Fahrenheit for public forecast. Weather courtesy of forecast.io.

Closest aviation weather report (METAR) to Oak Grove Marine Corps Outlying Field

Closest report is Coastal Carolina Regional Airport, 10.9 nm (20.1 km) ENE. Retrieved 2020/07/04 14:54 UTC (57 minutes ago):

KEWN 041454Z 31008KT 10SM CLR 32/22 A2994 RMK AO2 SLP136 T03170217 53006

Closest aviation forecast (TAF) to Oak Grove Marine Corps Outlying Field

Closest forecast is Coastal Carolina Regional Airport, 10.9 nm (20.1 km) ENE. Retrieved 2020/07/04 12:22 UTC (3 hours ago):

TAF KEWN 041120Z 0412/0512 28004KT P6SM FEW250 FM042000 VRB04KT P6SM VCTS SCT070CB FM050000 09003KT P6SM FEW060